createdAt,value
2019-01-15T00:00:03.481Z,21.6
2019-01-15T00:00:54.088Z,21.6
2019-01-15T00:01:44.083Z,21.6
2019-01-15T00:02:33.563Z,21.6
2019-01-15T00:03:23.926Z,21.6
2019-01-15T00:04:14.038Z,21.6
2019-01-15T00:05:04.418Z,21.6
2019-01-15T00:05:54.368Z,21.5
2019-01-15T00:06:44.135Z,21.4
2019-01-15T00:07:33.898Z,21.4
2019-01-15T00:08:24.011Z,21.4
2019-01-15T00:09:14.629Z,21.4
2019-01-15T00:10:03.585Z,21.4
2019-01-15T00:10:54.710Z,21.3
2019-01-15T00:11:44.765Z,21.3
2019-01-15T00:12:34.513Z,21.3
2019-01-15T00:13:24.032Z,21.3
2019-01-15T00:14:14.682Z,21.3
2019-01-15T00:15:04.525Z,21.3
2019-01-15T00:15:55.085Z,21.3
2019-01-15T00:16:45.100Z,21.3
2019-01-15T00:17:34.856Z,21.4
2019-01-15T00:18:25.205Z,21.4
2019-01-15T00:19:14.983Z,21.4
2019-01-15T00:20:05.372Z,21.4
2019-01-15T00:20:55.089Z,21.4
2019-01-15T00:21:45.172Z,21.4
2019-01-15T00:22:34.951Z,21.4
2019-01-15T00:23:25.272Z,21.5
2019-01-15T00:24:15.339Z,21.5
2019-01-15T00:25:05.724Z,21.5
2019-01-15T00:25:54.908Z,21.5
2019-01-15T00:26:45.767Z,21.6
2019-01-15T00:27:35.887Z,21.6
2019-01-15T00:28:25.326Z,21.6
2019-01-15T00:29:15.999Z,21.6
2019-01-15T00:30:05.189Z,21.6
2019-01-15T00:30:55.769Z,21.6
2019-01-15T00:31:45.574Z,21.6
2019-01-15T00:32:36.166Z,21.6
2019-01-15T00:33:26.244Z,21.6
2019-01-15T00:34:16.014Z,21.7
2019-01-15T00:35:05.930Z,21.7
2019-01-15T00:35:56.101Z,21.7
2019-01-15T00:36:47.844Z,21.7
2019-01-15T00:37:36.288Z,21.6
2019-01-15T00:38:26.286Z,21.6
2019-01-15T00:39:16.634Z,21.5
2019-01-15T00:40:06.526Z,21.5
2019-01-15T00:40:55.891Z,21.5
2019-01-15T00:41:46.230Z,21.5
2019-01-15T00:42:36.563Z,21.5
2019-01-15T00:43:28.601Z,21.5
2019-01-15T00:44:16.128Z,21.4
2019-01-15T00:45:06.733Z,21.5
2019-01-15T00:45:56.799Z,21.5
2019-01-15T00:46:47.135Z,21.5
2019-01-15T00:47:36.898Z,21.5
2019-01-15T00:48:27.238Z,21.5
2019-01-15T00:49:17.080Z,21.6
2019-01-15T00:50:06.960Z,21.6
2019-01-15T00:50:57.120Z,21.5
2019-01-15T00:51:47.511Z,21.6
2019-01-15T00:52:37.520Z,21.6
2019-01-15T00:53:27.589Z,21.6
2019-01-15T00:54:17.103Z,21.6
2019-01-15T00:55:07.132Z,21.6
2019-01-15T00:55:57.185Z,21.6
2019-01-15T00:56:47.522Z,21.6
2019-01-15T00:57:37.340Z,21.6
2019-01-15T00:58:27.889Z,21.5
2019-01-15T00:59:17.705Z,21.5
2019-01-15T01:00:07.197Z,21.4
2019-01-15T01:00:57.529Z,21.4
2019-01-15T01:01:48.145Z,21.5
2019-01-15T01:02:38.187Z,21.5
2019-01-15T01:03:28.241Z,21.4
2019-01-15T01:04:17.772Z,21.4
2019-01-15T01:05:08.154Z,21.4
2019-01-15T01:05:58.421Z,21.4
2019-01-15T01:06:48.269Z,21.4
2019-01-15T01:07:38.544Z,21.4
2019-01-15T01:08:28.310Z,21.4
2019-01-15T01:09:18.369Z,21.4
2019-01-15T01:10:08.262Z,21.4
2019-01-15T01:10:58.783Z,21.4
2019-01-15T01:11:48.821Z,21.4
2019-01-15T01:12:38.862Z,21.4
2019-01-15T01:13:28.651Z,21.4
2019-01-15T01:14:18.765Z,21.5
2019-01-15T01:15:08.787Z,21.5
2019-01-15T01:15:58.824Z,21.5
2019-01-15T01:16:48.882Z,21.6
2019-01-15T01:17:38.927Z,21.6
2019-01-15T01:18:29.004Z,21.6
2019-01-15T01:19:19.036Z,21.6
2019-01-15T01:20:09.085Z,21.6
2019-01-15T01:20:59.163Z,21.6
2019-01-15T01:21:49.248Z,21.6
2019-01-15T01:22:39.270Z,21.6
2019-01-15T01:23:29.050Z,21.6
2019-01-15T01:24:19.385Z,21.6
2019-01-15T01:25:09.453Z,21.6
2019-01-15T01:25:59.827Z,21.7
2019-01-15T01:26:49.821Z,21.7
2019-01-15T01:27:39.597Z,21.7
2019-01-15T01:28:29.715Z,21.7
2019-01-15T01:29:19.715Z,21.8
2019-01-15T01:30:10.052Z,21.7
2019-01-15T01:30:59.575Z,21.6
2019-01-15T01:31:50.160Z,21.6
2019-01-15T01:32:40.202Z,21.6
2019-01-15T01:33:29.730Z,21.6
2019-01-15T01:34:20.095Z,21.6
2019-01-15T01:35:09.837Z,21.6
2019-01-15T01:35:59.932Z,21.5
2019-01-15T01:36:50.225Z,21.5
2019-01-15T01:37:40.569Z,21.5
2019-01-15T01:38:29.775Z,21.4
2019-01-15T01:39:19.364Z,21.4
2019-01-15T01:40:09.968Z,21.4
2019-01-15T01:41:00.030Z,21.4
2019-01-15T01:41:49.862Z,21.4
2019-01-15T01:42:40.329Z,21.4
2019-01-15T01:43:30.706Z,21.4
2019-01-15T01:44:21.019Z,21.4
2019-01-15T01:45:11.069Z,21.4
2019-01-15T01:46:00.300Z,21.5
2019-01-15T01:46:50.340Z,21.5
2019-01-15T01:47:40.954Z,21.5
2019-01-15T01:48:31.016Z,21.5
2019-01-15T01:49:21.350Z,21.6
2019-01-15T01:50:11.397Z,21.6
2019-01-15T01:51:00.951Z,21.6
2019-01-15T01:51:51.280Z,21.6
2019-01-15T01:52:40.473Z,21.6
2019-01-15T01:53:31.093Z,21.6
2019-01-15T01:54:20.856Z,21.6
2019-01-15T01:55:11.446Z,21.6
2019-01-15T01:56:01.313Z,21.7
2019-01-15T01:56:51.641Z,21.7
2019-01-15T01:57:41.909Z,21.7
2019-01-15T01:58:31.424Z,21.8
2019-01-15T01:59:21.803Z,21.8
2019-01-15T02:00:12.094Z,21.8
2019-01-15T02:01:01.315Z,21.8
2019-01-15T02:01:51.967Z,21.8
2019-01-15T02:02:42.218Z,21.8
2019-01-15T02:03:31.759Z,21.8
2019-01-15T02:04:22.105Z,21.8
2019-01-15T02:05:11.895Z,21.8
2019-01-15T02:06:02.202Z,21.7
2019-01-15T02:06:52.298Z,21.7
2019-01-15T02:07:41.824Z,21.7
2019-01-15T02:08:32.650Z,21.6
2019-01-15T02:09:22.753Z,21.6
2019-01-15T02:10:12.015Z,21.6
2019-01-15T02:11:02.252Z,21.6
2019-01-15T02:11:52.570Z,21.6
2019-01-15T02:12:44.395Z,21.6
2019-01-15T02:13:32.702Z,21.6
2019-01-15T02:14:22.774Z,21.6
2019-01-15T02:15:12.550Z,21.6
2019-01-15T02:16:03.178Z,21.6
2019-01-15T02:16:53.219Z,21.6
2019-01-15T02:17:42.969Z,21.6
2019-01-15T02:18:33.042Z,21.6
2019-01-15T02:19:23.112Z,21.6
2019-01-15T02:20:13.429Z,21.6
2019-01-15T02:21:02.955Z,21.6
2019-01-15T02:21:53.542Z,21.6
2019-01-15T02:22:42.795Z,21.7
2019-01-15T02:23:33.366Z,21.7
2019-01-15T02:24:23.717Z,21.7
2019-01-15T02:25:13.827Z,21.6
2019-01-15T02:26:03.073Z,21.6
2019-01-15T02:26:55.031Z,21.6
2019-01-15T02:27:43.392Z,21.6
2019-01-15T02:28:33.724Z,21.6
2019-01-15T02:29:22.934Z,21.6
2019-01-15T02:30:13.909Z,21.6
2019-01-15T02:31:04.213Z,21.6
2019-01-15T02:31:53.726Z,21.6
2019-01-15T02:32:44.078Z,21.7
2019-01-15T02:33:34.096Z,21.7
2019-01-15T02:34:24.471Z,21.6
2019-01-15T02:35:13.697Z,21.6
2019-01-15T02:36:04.535Z,21.7
2019-01-15T02:36:54.079Z,21.7
2019-01-15T02:37:44.383Z,21.7
2019-01-15T02:38:34.423Z,21.8
2019-01-15T02:39:24.743Z,21.8
2019-01-15T02:40:14.837Z,21.7
2019-01-15T02:41:04.393Z,21.8
2019-01-15T02:41:54.653Z,21.8
2019-01-15T02:42:54.143Z,21.8
2019-01-15T02:43:34.822Z,21.8
2019-01-15T02:44:25.180Z,21.8
2019-01-15T02:45:14.718Z,21.8
2019-01-15T02:46:05.256Z,21.8
2019-01-15T02:46:54.727Z,21.8
2019-01-15T02:47:45.355Z,21.8
2019-01-15T02:48:34.831Z,21.9
2019-01-15T02:49:24.705Z,21.9
2019-01-15T02:50:15.040Z,21.9
2019-01-15T02:51:05.263Z,21.8
2019-01-15T02:51:55.678Z,21.8
2019-01-15T02:52:45.137Z,21.8
2019-01-15T02:53:35.183Z,21.6
2019-01-15T02:54:25.799Z,21.6
2019-01-15T02:55:15.603Z,21.6
2019-01-15T02:56:05.684Z,21.6
2019-01-15T02:56:56.045Z,21.6
2019-01-15T02:57:45.156Z,21.6
2019-01-15T02:58:35.584Z,21.6
2019-01-15T02:59:25.894Z,21.5
2019-01-15T03:00:15.940Z,21.5
2019-01-15T03:01:06.254Z,21.5
2019-01-15T03:01:55.727Z,21.5
2019-01-15T03:02:46.134Z,21.5
2019-01-15T03:03:36.099Z,21.5
2019-01-15T03:04:26.169Z,21.6
2019-01-15T03:05:16.210Z,21.6
2019-01-15T03:08:49.433Z,21.6
2019-01-15T03:09:39.396Z,21.6
2019-01-15T03:10:28.901Z,21.6
2019-01-15T03:11:19.015Z,21.6
2019-01-15T03:12:08.796Z,21.6
2019-01-15T03:13:02.998Z,21.6
2019-01-15T03:13:49.358Z,21.6
2019-01-15T03:14:38.875Z,21.6
2019-01-15T03:15:30.098Z,21.6
2019-01-15T03:16:20.301Z,21.7
2019-01-15T03:17:10.343Z,21.7
2019-01-15T03:18:00.246Z,21.7
2019-01-15T03:18:51.806Z,21.7
2019-01-15T03:19:39.993Z,21.7
2019-01-15T03:20:30.328Z,21.7
2019-01-15T03:21:20.659Z,21.7
2019-01-15T03:22:10.701Z,21.7
2019-01-15T03:23:00.595Z,21.7
2019-01-15T03:23:50.802Z,21.7
2019-01-15T03:24:40.052Z,21.7
2019-01-15T03:25:30.697Z,21.7
2019-01-15T03:26:20.495Z,21.6
2019-01-15T03:27:10.532Z,21.6
2019-01-15T03:28:01.100Z,21.6
2019-01-15T03:28:49.543Z,21.6
2019-01-15T03:29:40.956Z,21.6
2019-01-15T03:30:30.514Z,21.5
2019-01-15T03:31:21.508Z,21.5
2019-01-15T03:32:11.418Z,21.5
2019-01-15T03:33:01.627Z,21.4
2019-01-15T03:33:51.557Z,21.4
2019-01-15T03:34:41.342Z,21.5
2019-01-15T03:35:30.809Z,21.4
2019-01-15T03:36:21.402Z,21.4
2019-01-15T03:37:11.460Z,21.4
2019-01-15T03:38:01.587Z,21.4
2019-01-15T03:38:51.557Z,21.4
2019-01-15T03:39:41.579Z,21.4
2019-01-15T03:40:31.754Z,21.4
2019-01-15T03:41:21.241Z,21.4
2019-01-15T03:42:11.817Z,21.5
2019-01-15T03:43:11.059Z,21.5
2019-01-15T03:43:51.695Z,21.5
2019-01-15T03:44:41.722Z,21.5
2019-01-15T03:45:32.455Z,21.5
2019-01-15T03:46:21.776Z,21.5
2019-01-15T03:47:11.579Z,21.6
2019-01-15T03:48:02.540Z,21.6
2019-01-15T03:48:52.311Z,21.6
2019-01-15T03:49:42.254Z,21.6
2019-01-15T03:50:32.143Z,21.6
2019-01-15T03:51:22.126Z,21.6
2019-01-15T03:52:12.186Z,21.6
2019-01-15T03:53:02.809Z,21.6
2019-01-15T03:53:52.626Z,21.6
2019-01-15T03:54:42.913Z,21.6
2019-01-15T03:55:32.736Z,21.6
2019-01-15T03:56:22.441Z,21.6
2019-01-15T03:57:12.764Z,21.6
2019-01-15T03:58:02.308Z,21.6
2019-01-15T03:58:52.638Z,21.6
2019-01-15T03:59:42.250Z,21.6
2019-01-15T04:00:32.998Z,21.6
2019-01-15T04:01:23.150Z,21.6
2019-01-15T04:02:13.431Z,21.6
2019-01-15T04:03:03.392Z,21.6
2019-01-15T04:03:52.998Z,21.6
2019-01-15T04:04:43.318Z,21.6
2019-01-15T04:05:33.362Z,21.6
2019-01-15T04:06:23.686Z,21.6
2019-01-15T04:07:13.456Z,21.6
2019-01-15T04:08:03.563Z,21.6
2019-01-15T04:08:53.939Z,21.6
2019-01-15T04:09:43.395Z,21.6
2019-01-15T04:10:33.492Z,21.7
2019-01-15T04:11:24.011Z,21.7
2019-01-15T04:12:13.807Z,21.7
2019-01-15T04:13:11.742Z,21.8
2019-01-15T04:13:53.679Z,21.8
2019-01-15T04:14:44.255Z,21.8
2019-01-15T04:15:34.072Z,21.8
2019-01-15T04:16:24.358Z,21.8
2019-01-15T04:17:14.200Z,21.8
2019-01-15T04:18:04.520Z,21.9
2019-01-15T04:18:56.307Z,21.9
2019-01-15T04:19:44.616Z,21.9
2019-01-15T04:20:34.417Z,21.9
2019-01-15T04:21:23.592Z,21.8
2019-01-15T04:22:13.355Z,21.8
2019-01-15T04:23:04.582Z,21.8
2019-01-15T04:23:54.907Z,21.8
2019-01-15T04:24:44.634Z,21.7
2019-01-15T04:25:34.837Z,21.7
2019-01-15T04:26:24.292Z,21.6
2019-01-15T04:27:15.074Z,21.6
2019-01-15T04:28:04.591Z,21.6
2019-01-15T04:28:54.086Z,21.6
2019-01-15T04:29:45.254Z,21.6
2019-01-15T04:30:35.096Z,21.6
2019-01-15T04:31:25.508Z,21.6
2019-01-15T04:32:14.925Z,21.6
2019-01-15T04:33:05.231Z,21.6
2019-01-15T04:33:55.096Z,21.6
2019-01-15T04:34:45.653Z,21.6
2019-01-15T04:35:35.364Z,21.6
2019-01-15T04:36:25.134Z,21.6
2019-01-15T04:37:15.812Z,21.6
2019-01-15T04:38:05.551Z,21.6
2019-01-15T04:38:55.904Z,21.6
2019-01-15T04:39:45.133Z,21.6
2019-01-15T04:40:35.452Z,21.7
2019-01-15T04:41:25.635Z,21.7
2019-01-15T04:42:16.110Z,21.7
2019-01-15T04:43:06.171Z,21.7
2019-01-15T04:43:55.203Z,21.7
2019-01-15T04:44:45.723Z,21.7
2019-01-15T04:45:36.074Z,21.7
2019-01-15T04:46:26.500Z,21.7
2019-01-15T04:47:15.919Z,21.7
2019-01-15T04:48:06.475Z,21.8
2019-01-15T04:48:56.572Z,21.7
2019-01-15T04:49:45.807Z,21.8
2019-01-15T04:50:36.102Z,21.8
2019-01-15T04:51:26.470Z,21.8
2019-01-15T04:52:16.553Z,21.8
2019-01-15T04:53:06.749Z,21.8
2019-01-15T04:53:56.885Z,21.9
2019-01-15T04:54:46.946Z,21.8
2019-01-15T04:55:36.767Z,21.9
2019-01-15T04:56:26.802Z,21.9
2019-01-15T04:57:17.163Z,21.9
2019-01-15T04:58:06.947Z,21.9
2019-01-15T04:58:56.709Z,21.8
2019-01-15T04:59:46.467Z,21.8
2019-01-15T05:00:37.088Z,21.7
2019-01-15T05:01:26.824Z,21.7
2019-01-15T05:02:17.524Z,21.6
2019-01-15T05:03:07.328Z,21.6
2019-01-15T05:03:56.778Z,21.6
2019-01-15T05:04:47.089Z,21.6
2019-01-15T05:05:37.406Z,21.4
2019-01-15T05:06:27.202Z,21.4
2019-01-15T05:07:17.782Z,21.3
2019-01-15T05:08:07.364Z,21.3
2019-01-15T05:08:57.602Z,21.2
2019-01-15T05:10:37.772Z,21.1
2019-01-15T05:11:27.796Z,21
2019-01-15T05:12:18.123Z,21
2019-01-15T05:13:07.996Z,20.9
2019-01-15T05:13:58.292Z,20.9
2019-01-15T05:14:47.471Z,20.8
2019-01-15T05:15:37.791Z,20.7
2019-01-15T05:16:27.630Z,20.7
2019-01-15T05:17:17.620Z,20.8
2019-01-15T05:18:08.008Z,20.8
2019-01-15T05:18:57.771Z,20.8
2019-01-15T05:19:47.516Z,20.7
2019-01-15T05:20:38.179Z,20.7
2019-01-15T05:21:28.519Z,20.6
2019-01-15T05:22:18.568Z,20.5
2019-01-15T05:23:08.898Z,20.4
2019-01-15T05:23:58.668Z,20.4
2019-01-15T05:24:48.495Z,20.3
2019-01-15T05:25:38.265Z,20.3
2019-01-15T05:26:30.713Z,20.3
2019-01-15T05:27:18.131Z,20.4
2019-01-15T05:28:08.190Z,20.4
2019-01-15T05:28:58.498Z,20.4
2019-01-15T05:29:48.783Z,20.4
2019-01-15T05:30:39.375Z,20.5
2019-01-15T05:31:29.445Z,20.6
2019-01-15T05:32:19.550Z,20.6
2019-01-15T05:33:09.307Z,20.7
2019-01-15T05:33:59.326Z,20.8
2019-01-15T05:34:49.095Z,20.8
2019-01-15T05:35:39.527Z,20.9
2019-01-15T05:36:29.748Z,20.9
2019-01-15T05:37:19.812Z,21
2019-01-15T05:38:09.569Z,21.1
2019-01-15T05:38:59.969Z,21.1
2019-01-15T05:43:09.728Z,21.2
2019-01-15T05:44:49.322Z,21.2
2019-01-15T05:48:10.319Z,21.2
2019-01-15T05:49:00.589Z,21.3
2019-01-15T05:49:51.780Z,21.3
2019-01-15T05:50:39.936Z,21.3
2019-01-15T05:51:30.791Z,21.4
2019-01-15T05:52:20.239Z,21.4
2019-01-15T05:53:10.609Z,21.4
2019-01-15T05:54:00.384Z,21.4
2019-01-15T05:54:50.449Z,21.4
2019-01-15T05:55:40.786Z,21.4
2019-01-15T05:56:30.926Z,21.5
2019-01-15T05:57:21.088Z,21.5
2019-01-15T05:58:11.230Z,21.5
2019-01-15T05:59:00.480Z,21.5
2019-01-15T05:59:49.976Z,21.5
2019-01-15T06:00:40.625Z,21.4
2019-01-15T06:01:30.138Z,21.4
2019-01-15T06:02:20.911Z,21.4
2019-01-15T06:03:11.294Z,21.4
2019-01-15T06:04:01.025Z,21.4
2019-01-15T06:04:50.798Z,21.4
2019-01-15T06:06:49.362Z,21.4
2019-01-15T06:07:41.120Z,21.4
2019-01-15T06:08:29.250Z,21.4
2019-01-15T06:09:19.252Z,21.4
2019-01-15T06:10:09.033Z,21.4
2019-01-15T06:10:59.648Z,21.4
2019-01-15T06:11:49.423Z,21.4
2019-01-15T06:12:39.480Z,21.4
2019-01-15T06:13:29.542Z,21.4
2019-01-15T06:14:19.372Z,21.4
2019-01-15T06:15:09.942Z,21.5
2019-01-15T06:15:59.702Z,21.5
2019-01-15T06:16:50.045Z,21.5
2019-01-15T06:17:39.820Z,21.6
2019-01-15T06:18:30.132Z,21.5
2019-01-15T06:19:20.214Z,21.6
2019-01-15T06:20:09.972Z,21.6
2019-01-15T06:20:59.793Z,21.6
2019-01-15T06:21:50.626Z,21.6
2019-01-15T06:22:40.421Z,21.6
2019-01-15T06:23:30.739Z,21.6
2019-01-15T06:24:20.796Z,21.6
2019-01-15T06:25:10.754Z,21.6
2019-01-15T06:26:00.919Z,21.6
2019-01-15T06:26:50.736Z,21.6
2019-01-15T06:27:40.784Z,21.6
2019-01-15T06:28:31.107Z,21.6
2019-01-15T06:29:20.853Z,21.6
2019-01-15T06:30:10.942Z,21.6
2019-01-15T06:31:00.149Z,21.6
2019-01-15T06:31:50.191Z,21.6
2019-01-15T06:32:41.096Z,21.6
2019-01-15T06:33:31.312Z,21.6
2019-01-15T06:34:21.050Z,21.5
2019-01-15T06:35:11.293Z,21.5
2019-01-15T06:36:01.424Z,21.4
2019-01-15T06:36:51.456Z,21.4
2019-01-15T06:37:41.571Z,21.4
2019-01-15T06:38:31.501Z,21.4
2019-01-15T06:39:20.986Z,21.4
2019-01-15T06:40:11.338Z,21.4
2019-01-15T06:41:01.978Z,21.4
2019-01-15T06:41:51.164Z,21.4
2019-01-15T06:42:41.265Z,21.4
2019-01-15T06:43:31.611Z,21.4
2019-01-15T06:44:22.130Z,21.4
2019-01-15T06:45:12.178Z,21.4
2019-01-15T06:46:01.985Z,21.4
2019-01-15T06:46:51.488Z,21.4
2019-01-15T06:47:42.360Z,21.4
2019-01-15T06:48:31.623Z,21.4
2019-01-15T06:49:22.478Z,21.4
2019-01-15T06:50:12.272Z,21.4
2019-01-15T06:51:02.111Z,21.4
2019-01-15T06:51:51.800Z,21.4
2019-01-15T06:52:42.158Z,21.5
2019-01-15T06:53:32.497Z,21.4
2019-01-15T06:54:22.895Z,21.4
2019-01-15T06:55:12.584Z,21.4
2019-01-15T06:56:02.645Z,21.4
2019-01-15T06:56:52.981Z,21.4
2019-01-15T06:57:42.517Z,21.4
2019-01-15T06:58:33.105Z,21.4
2019-01-15T06:59:22.649Z,21.4
2019-01-15T07:00:12.707Z,21.4
2019-01-15T07:01:02.782Z,21.4
2019-01-15T07:01:53.029Z,21.4
2019-01-15T07:02:42.319Z,21.4
2019-01-15T07:03:33.126Z,21.4
2019-01-15T07:04:23.201Z,21.4
2019-01-15T07:06:49.326Z,21.7
2019-01-15T07:07:39.647Z,21.7
2019-01-15T07:08:29.431Z,21.7
2019-01-15T07:09:19.469Z,21.8
2019-01-15T07:10:09.237Z,21.7
2019-01-15T07:10:59.574Z,21.7
2019-01-15T07:11:49.905Z,21.7
2019-01-15T07:12:40.001Z,21.7
2019-01-15T07:13:30.033Z,21.6
2019-01-15T07:14:20.093Z,21.6
2019-01-15T07:15:10.128Z,21.6
2019-01-15T07:15:59.638Z,21.6
2019-01-15T07:16:49.778Z,21.6
2019-01-15T07:17:39.539Z,21.6
2019-01-15T07:18:29.603Z,21.6
2019-01-15T07:19:19.373Z,21.5
2019-01-15T07:20:10.459Z,21.5
2019-01-15T07:21:01.050Z,21.5
2019-01-15T07:21:50.580Z,21.4
2019-01-15T07:22:40.700Z,21.4
2019-01-15T07:23:30.696Z,21.4
2019-01-15T07:24:20.475Z,21.4
2019-01-15T07:25:10.525Z,21.4
2019-01-15T07:26:00.870Z,21.4
2019-01-15T07:26:50.105Z,21.4
2019-01-15T07:27:40.150Z,21.4
2019-01-15T07:28:29.992Z,21.4
2019-01-15T07:29:20.810Z,21.4
2019-01-15T07:30:10.908Z,21.4
2019-01-15T07:31:00.917Z,21.4
2019-01-15T07:31:50.705Z,21.4
2019-01-15T07:32:41.351Z,21.4
2019-01-15T07:33:31.425Z,21.4
2019-01-15T07:34:21.189Z,21.4
2019-01-15T07:35:11.552Z,21.4
2019-01-15T07:36:01.277Z,21.4
2019-01-15T07:36:50.752Z,21.4
2019-01-15T07:37:41.105Z,21.5
2019-01-15T07:38:30.602Z,21.5
2019-01-15T07:39:21.214Z,21.5
2019-01-15T07:40:11.527Z,21.5
2019-01-15T07:41:01.647Z,21.5
2019-01-15T07:41:50.833Z,21.4
2019-01-15T07:42:41.321Z,21.5
2019-01-15T07:43:31.784Z,21.5
2019-01-15T07:44:21.736Z,21.4
2019-01-15T07:45:12.144Z,21.4
2019-01-15T07:46:01.104Z,21.4
2019-01-15T07:46:51.751Z,21.4
2019-01-15T07:47:42.442Z,21.4
2019-01-15T07:48:31.970Z,21.4
2019-01-15T07:49:21.414Z,21.4
2019-01-15T07:50:11.779Z,21.4
2019-01-15T07:51:02.157Z,21.4
2019-01-15T07:51:51.865Z,21.4
2019-01-15T07:52:42.152Z,21.4
2019-01-15T07:53:32.475Z,21.4
2019-01-15T07:54:22.841Z,21.4
2019-01-15T07:55:14.013Z,21.4
2019-01-15T07:56:02.659Z,21.4
2019-01-15T07:56:52.142Z,21.4
2019-01-15T07:57:42.206Z,21.4
2019-01-15T07:58:33.056Z,21.4
2019-01-15T07:59:22.838Z,21.4
2019-01-15T08:00:12.891Z,21.4
2019-01-15T08:01:02.956Z,21.5
2019-01-15T08:01:52.733Z,21.5
2019-01-15T08:02:42.839Z,21.5
2019-01-15T08:03:35.158Z,21.5
2019-01-15T08:04:22.878Z,21.5
2019-01-15T08:05:12.953Z,21.5
2019-01-15T08:06:03.555Z,21.5
2019-01-15T08:06:53.067Z,21.5
2019-01-15T08:07:43.410Z,21.6
2019-01-15T08:08:33.497Z,21.6
2019-01-15T08:09:23.868Z,21.5
2019-01-15T08:10:13.572Z,21.6
2019-01-15T08:11:04.525Z,21.6
2019-01-15T08:11:53.689Z,21.5
2019-01-15T08:12:43.743Z,21.5
2019-01-15T08:13:34.065Z,21.5
2019-01-15T08:14:23.567Z,21.5
2019-01-15T08:15:14.185Z,21.5
2019-01-15T08:16:04.276Z,21.5
2019-01-15T08:16:53.819Z,21.5
2019-01-15T08:17:43.796Z,21.5
2019-01-15T08:18:33.657Z,21.5
2019-01-15T08:19:23.709Z,21.4
2019-01-15T08:20:14.252Z,21.5
2019-01-15T08:21:03.289Z,21.4
2019-01-15T08:21:55.962Z,21.4
2019-01-15T08:22:44.419Z,21.4
2019-01-15T08:23:34.457Z,21.4
2019-01-15T08:24:24.034Z,21.4
2019-01-15T08:25:14.650Z,21.4
2019-01-15T08:26:04.708Z,21.4
2019-01-15T08:26:54.193Z,21.4
2019-01-15T08:27:45.046Z,21.4
2019-01-15T08:28:35.103Z,21.4
2019-01-15T08:29:25.149Z,21.4
2019-01-15T08:30:14.626Z,21.4
2019-01-15T08:31:04.233Z,21.4
2019-01-15T08:31:55.083Z,21.4
2019-01-15T08:32:44.863Z,21.4
2019-01-15T08:33:35.463Z,21.4
2019-01-15T08:34:25.190Z,21.4
2019-01-15T08:35:15.521Z,21.4
2019-01-15T08:36:05.366Z,21.5
2019-01-15T08:36:55.386Z,21.5
2019-01-15T08:37:45.138Z,21.5
2019-01-15T08:38:35.173Z,21.5
2019-01-15T08:39:24.753Z,21.5
2019-01-15T08:40:15.371Z,21.5
2019-01-15T08:41:05.633Z,21.5
2019-01-15T08:41:56.785Z,21.4
2019-01-15T08:42:45.803Z,21.4
2019-01-15T08:43:36.088Z,21.4
2019-01-15T08:44:26.060Z,21.4
2019-01-15T08:45:15.965Z,21.4
2019-01-15T08:46:05.987Z,21.4
2019-01-15T08:46:55.547Z,21.4
2019-01-15T08:47:45.532Z,21.4
2019-01-15T08:48:35.885Z,21.4
2019-01-15T08:49:26.226Z,21.4
2019-01-15T08:50:16.543Z,21.4
2019-01-15T08:51:05.755Z,21.4
2019-01-15T08:51:56.370Z,21.4
2019-01-15T08:52:46.690Z,21.4
2019-01-15T08:53:35.465Z,21.4
2019-01-15T08:54:28.320Z,21.4
2019-01-15T08:55:16.867Z,21.4
2019-01-15T08:56:06.667Z,21.4
2019-01-15T08:56:56.754Z,21.5
2019-01-15T08:57:46.489Z,21.5
2019-01-15T08:58:36.827Z,21.5
2019-01-15T08:59:26.925Z,21.5
2019-01-15T09:00:16.689Z,21.5
2019-01-15T09:01:07.029Z,21.5
2019-01-15T09:01:57.051Z,21.5
2019-01-15T09:02:47.419Z,21.5
2019-01-15T09:03:37.496Z,21.5
2019-01-15T09:04:27.237Z,21.4
2019-01-15T09:05:17.011Z,21.5
2019-01-15T09:06:07.099Z,21.4
2019-01-15T09:06:57.794Z,21.4
2019-01-15T09:07:47.161Z,21.4
2019-01-15T09:08:37.508Z,21.4
2019-01-15T09:09:27.263Z,21.4
2019-01-15T09:10:17.701Z,21.4
2019-01-15T09:11:08.181Z,21.4
2019-01-15T09:11:57.311Z,21.4
2019-01-15T09:12:47.310Z,21.4
2019-01-15T09:13:37.849Z,21.4
2019-01-15T09:14:33.863Z,21.4
2019-01-15T09:15:18.476Z,21.4
2019-01-15T09:16:07.787Z,21.4
2019-01-15T09:16:59.384Z,21.4
2019-01-15T09:17:47.906Z,21.4
2019-01-15T09:18:37.987Z,21.5
2019-01-15T09:19:27.771Z,21.5
2019-01-15T09:20:19.223Z,21.5
2019-01-15T09:21:08.173Z,21.5
2019-01-15T09:21:57.859Z,21.5
2019-01-15T09:22:48.288Z,21.5
2019-01-15T09:23:38.813Z,21.6
2019-01-15T09:24:28.848Z,21.6
2019-01-15T09:25:18.515Z,21.6
2019-01-15T09:26:09.224Z,21.6
2019-01-15T09:26:59.027Z,21.6
2019-01-15T09:27:49.170Z,21.5
2019-01-15T09:28:38.580Z,21.5
2019-01-15T09:29:28.425Z,21.5
2019-01-15T09:30:19.327Z,21.5
2019-01-15T09:31:09.296Z,21.5
2019-01-15T09:31:59.390Z,21.5
2019-01-15T09:32:48.918Z,21.4
2019-01-15T09:33:39.197Z,21.4
2019-01-15T09:34:28.983Z,21.4
2019-01-15T09:35:19.043Z,21.4
2019-01-15T09:36:09.645Z,21.4
2019-01-15T09:36:59.198Z,21.4
2019-01-15T09:37:49.188Z,21.4
2019-01-15T09:38:39.850Z,21.4
2019-01-15T09:39:29.030Z,21.4
2019-01-15T09:40:19.982Z,21.4
2019-01-15T09:41:09.969Z,21.4
2019-01-15T09:41:59.489Z,21.4
2019-01-15T09:42:48.782Z,21.4
2019-01-15T09:43:39.577Z,21.4
2019-01-15T09:44:37.475Z,21.4
2019-01-15T09:45:20.387Z,21.4
2019-01-15T09:46:10.033Z,21.5
2019-01-15T09:47:00.077Z,21.5
2019-01-15T09:47:50.229Z,21.5
2019-01-15T09:48:40.007Z,21.4
2019-01-15T09:49:30.266Z,21.4
2019-01-15T09:50:22.044Z,21.5
2019-01-15T09:51:10.119Z,21.5
2019-01-15T09:52:00.694Z,21.4
2019-01-15T09:52:50.212Z,21.5
2019-01-15T09:53:40.254Z,21.5
2019-01-15T09:54:30.594Z,21.4
2019-01-15T09:55:20.944Z,21.4
2019-01-15T09:56:10.428Z,21.4
2019-01-15T09:57:00.543Z,21.4
2019-01-15T09:57:50.556Z,21.4
2019-01-15T09:58:40.883Z,21.4
2019-01-15T09:59:30.942Z,21.4
2019-01-15T10:00:21.280Z,21.4
2019-01-15T10:01:11.045Z,21.3
2019-01-15T10:02:01.100Z,21.3
2019-01-15T10:02:50.898Z,21.3
2019-01-15T10:03:41.468Z,21.3
2019-01-15T10:04:31.371Z,21.3
2019-01-15T10:05:21.110Z,21.3
2019-01-15T10:07:49.173Z,21.3
2019-01-15T10:08:38.978Z,21.3
2019-01-15T10:09:29.035Z,21.3
2019-01-15T10:10:18.603Z,21.3
2019-01-15T10:11:08.817Z,21.3
2019-01-15T10:11:59.722Z,21.3
2019-01-15T10:12:49.522Z,21.3
2019-01-15T10:13:39.885Z,21.4
2019-01-15T10:14:29.892Z,21.3
2019-01-15T10:15:18.726Z,21.3
2019-01-15T10:16:11.784Z,21.4
2019-01-15T10:17:00.074Z,21.3
2019-01-15T10:17:49.594Z,21.4
2019-01-15T10:18:40.162Z,21.4
2019-01-15T10:19:29.944Z,21.4
2019-01-15T10:20:20.285Z,21.4
2019-01-15T10:21:10.324Z,21.4
2019-01-15T10:22:00.134Z,21.3
2019-01-15T10:22:50.466Z,21.3
2019-01-15T10:23:40.545Z,21.3
2019-01-15T10:24:30.020Z,21.3
2019-01-15T10:25:20.631Z,21.3
2019-01-15T10:26:10.400Z,21.3
2019-01-15T10:27:00.734Z,21.3
2019-01-15T10:27:50.849Z,21.3
2019-01-15T10:28:40.616Z,21.3
2019-01-15T10:29:29.844Z,21.3
2019-01-15T10:30:20.689Z,21.3
2019-01-15T10:31:11.013Z,21.3
2019-01-15T10:32:00.793Z,21.3
2019-01-15T10:32:50.016Z,21.4
2019-01-15T10:33:42.563Z,21.4
2019-01-15T10:34:30.953Z,21.4
2019-01-15T10:35:21.071Z,21.4
2019-01-15T10:36:11.051Z,21.4
2019-01-15T10:37:00.826Z,21.4
2019-01-15T10:37:50.894Z,21.4
2019-01-15T10:38:41.231Z,21.4
2019-01-15T10:39:31.580Z,21.4
2019-01-15T10:40:20.818Z,21.4
2019-01-15T10:41:11.690Z,21.4
2019-01-15T10:42:01.188Z,21.4
2019-01-15T10:42:51.235Z,21.4
2019-01-15T10:43:41.858Z,21.4
2019-01-15T10:44:31.908Z,21.4
2019-01-15T10:45:21.440Z,21.4
2019-01-15T10:46:11.740Z,21.3
2019-01-15T10:47:01.647Z,21.3
2019-01-15T10:47:51.585Z,21.3
2019-01-15T10:48:41.927Z,21.3
2019-01-15T10:49:31.967Z,21.3
2019-01-15T10:50:21.475Z,21.3
2019-01-15T10:51:12.418Z,21.3
2019-01-15T10:52:02.160Z,21.3
2019-01-15T10:52:52.218Z,21.3
2019-01-15T10:53:42.503Z,21.3
2019-01-15T10:54:32.293Z,21.3
2019-01-15T10:55:22.342Z,21.3
2019-01-15T10:56:11.935Z,21.3
2019-01-15T10:57:01.969Z,21.3
2019-01-15T10:57:52.040Z,21.3
2019-01-15T10:58:42.842Z,21.3
2019-01-15T10:59:32.662Z,21.4
2019-01-15T11:00:22.402Z,21.4
2019-01-15T11:01:12.766Z,21.4
2019-01-15T11:02:02.247Z,21.4
2019-01-15T11:02:52.869Z,21.4
2019-01-15T11:03:42.912Z,21.4
2019-01-15T11:04:32.992Z,21.4
2019-01-15T11:05:22.579Z,21.4
2019-01-15T11:06:12.252Z,21.4
2019-01-15T11:07:03.159Z,21.4
2019-01-15T11:07:53.181Z,21.4
2019-01-15T11:08:43.284Z,21.4
2019-01-15T11:09:32.818Z,21.4
2019-01-15T11:10:22.806Z,21.4
2019-01-15T11:11:13.141Z,21.4
2019-01-15T11:12:03.256Z,21.4
2019-01-15T11:12:53.040Z,21.3
2019-01-15T11:13:42.769Z,21.3
2019-01-15T11:14:33.756Z,21.3
2019-01-15T11:15:23.693Z,21.3
2019-01-15T11:16:14.053Z,21.3
2019-01-15T11:17:03.343Z,21.3
2019-01-15T11:17:53.387Z,21.3
2019-01-15T11:18:44.926Z,21.3
2019-01-15T11:19:33.509Z,21.3
2019-01-15T11:20:24.025Z,21.3